Terminal Aerodrome Forecast
Issued by NWS

Home | Current Version | Previous Version | Text Only | Print | Product List | Glossary On
Versions: 1 2 3 4 5 6 7 8 9 10 11 12 13 14 15 16 17 18 19 20 21
000
FTUS44 KSJT 231723
TAFBBD
TAF
KBBD 231723Z 2318/2418 16011KT P6SM SCT050
     FM232100 14011KT P6SM SCT050
     FM240100 13006KT P6SM FEW250
     FM241100 12006KT P6SM BKN020
     FM241500 16007KT P6SM SCT050=

USA.gov is the U.S. government's official web portal to all federal, state and local government web resources and services.